Latest Weather Observations for Casey*

IDT60801

Issued at 9:31 pm EDT Sunday 21 December 2014 (issued every 30 minutes, with the page automatically refreshed every 10 minutes)

About weather observations | Map of weather stations | Latest weather observations for ANT | Other Formats
Station Details ID: 300017 Name: CASEY Lat: -66.28 Lon: 110.52 Height: 40.0 m
Data from the previous 72 hours. | See also: Recent months at Casey*
Date/Time
EDT
Temp
°C
App
Temp
°C
Dew
Point
Rel
Hum
%
Delta-T
°C
Wind Press
QNH
hPa
Press
MSL
hPa
Rain
since 9 am
mm
Dir
 
Spd
km/h
Gust
km/h
Spd
kts
Gust
kts
21/09:30pm 2.7 -1.2 -4.5 59 - ENE 7 13 4 7 981.8 - -
21/09:00pm 2.8 -1.8 -3.7 62 - ENE 11 15 6 8 981.6 - -
21/08:30pm 2.3 -2.1 -2.8 69 - SSW 11 15 6 8 981.5 - -
21/08:00pm 2.6 -2.3 -3.1 66 - NE 13 20 7 11 981.0 981.3 -
21/07:30pm 3.1 -1.0 -3.2 63 - NE 9 17 5 9 980.6 - -
21/07:00pm 2.6 -1.5 -2.7 68 - NNW 9 20 5 11 980.0 - -
21/06:30pm 2.6 -2.2 -2.7 68 - WNW 13 22 7 12 979.5 - -
21/06:00pm 1.8 -2.9 -1.8 77 - W 13 17 7 9 979.2 - -
21/05:30pm 3.4 -3.5 -3.0 63 - E 24 39 13 21 978.4 - -
21/05:26pm 3.0 -4.7 -3.3 63 - E 28 39 15 21 978.3 - -
21/05:00pm 2.6 -2.7 -3.7 63 - NNW 15 19 8 10 978.5 978.8 -
21/04:30pm 2.9 -3.4 -4.1 60 - NE 20 26 11 14 978.2 - -
21/04:00pm 3.2 -3.2 -4.7 56 - ENE 20 32 11 17 977.9 - -
21/03:30pm 3.0 -2.1 -5.1 55 - SSE 13 17 7 9 978.0 - -
21/03:00pm 1.9 -4.2 -4.0 65 - SSE 19 26 10 14 977.5 - -
21/02:30pm 1.5 -5.5 -3.2 71 - SSE 24 28 13 15 977.7 - -
21/02:00pm 2.4 -3.7 -3.7 64 - S 19 24 10 13 978.3 978.6 -
21/01:30pm 2.0 -4.1 -3.5 67 - S 19 22 10 12 978.5 - -
21/01:00pm 2.1 -2.9 -4.2 63 - S 13 19 7 10 979.0 - -
21/12:30pm 1.1 -3.4 -3.6 71 - S 11 17 6 9 979.1 - -
21/12:00pm 1.0 -3.6 -4.2 68 - S 11 13 6 7 979.1 - -
21/11:30am 1.2 -4.5 -3.5 71 - S 17 22 9 12 979.2 - -
21/11:00am 0.7 -5.6 -3.8 72 - SSE 20 28 11 15 979.1 979.4 -
21/10:30am 1.4 -3.9 -4.0 67 - S 15 22 8 12 979.3 - -
21/10:10am 3.4 -4.7 -6.8 47 - S 28 41 15 22 979.2 - -
21/10:00am 2.8 -2.0 -5.6 54 - S 11 17 6 9 979.5 - -
21/09:36am 3.8 -4.4 -7.6 43 - ESE 28 44 15 24 979.4 - -
21/09:34am 3.8 -6.4 -7.3 44 - ENE 39 46 21 25 979.3 - -
21/09:30am 3.5 -2.9 -6.7 47 - E 19 26 10 14 979.6 - -
21/09:00am 2.5 -1.9 -5.8 54 - WNW 9 15 5 8 980.1 - -
21/08:30am 2.9 -1.5 -6.2 51 - NE 9 20 5 11 980.0 - -
21/08:00am 3.0 -2.9 -6.1 51 - ENE 17 32 9 17 980.0 980.3 -
21/07:30am 2.2 -1.8 -5.4 57 - SSW 7 13 4 7 980.3 - -
21/07:00am 0.0 -5.7 -3.4 78 - SW 17 19 9 10 980.3 - -
21/06:30am 0.6 -3.5 -3.1 76 - SSE 9 11 5 6 980.7 - -
21/06:00am 0.6 -3.5 -3.0 77 - S 9 13 5 7 980.9 - -
21/05:30am 1.7 -1.3 -5.2 60 - S 2 7 1 4 981.4 - -
21/05:00am 1.9 -1.4 -4.8 61 - NNE 4 7 2 4 981.6 981.9 -
21/04:30am 1.5 -2.1 -3.7 68 - SE 6 9 3 5 981.7 - -
21/04:00am 1.3 -3.2 -3.4 71 - S 11 13 6 7 981.9 - -
21/03:30am 1.6 -2.5 -3.3 70 - S 9 13 5 7 982.2 - -
21/03:00am 1.6 -3.7 -3.3 70 - S 15 17 8 9 982.5 - -
21/02:30am 2.4 -0.1 -4.1 62 - CALM 0 0 0 0 982.8 - -
21/02:00am 2.2 -1.6 -3.7 65 - SSE 7 11 4 6 983.0 983.3 -
21/01:30am 2.3 -1.3 -3.6 65 - SE 6 9 3 5 983.3 - -
21/01:00am 2.1 -2.0 -3.0 69 - S 9 11 5 6 983.8 - -
21/12:30am 1.9 -2.5 -2.6 72 - SE 11 13 6 7 984.2 - -
21/12:00am 1.6 -2.4 -2.3 75 - S 9 11 5 6 984.6 - -
 
Date/Time
EDT
Temp
°C
App
Temp
°C
Dew
Point
Rel
Hum
%
Delta-T
°C
Wind Press
QNH
hPa
Press
MSL
hPa
Rain
since 9 am
mm
Dir
 
Spd
km/h
Gust
km/h
Spd
kts
Gust
kts
20/11:30pm 2.1 -2.7 -2.4 72 - S 13 15 7 8 984.9 - -
20/11:00pm 2.5 -1.9 -2.4 70 - S 11 15 6 8 985.1 985.3 -
20/10:30pm 2.9 -2.2 -2.2 69 - SE 15 17 8 9 985.5 - -
20/10:00pm 2.5 -1.9 -2.4 70 - SSE 11 15 6 8 985.7 - -
20/09:30pm 3.2 -0.2 -2.3 67 - S 6 9 3 5 986.0 - -
20/09:00pm 2.6 -1.7 -1.6 74 - SW 11 13 6 7 986.1 - -
20/08:30pm 2.1 -2.6 -2.0 74 - WSW 13 17 7 9 986.5 - -
20/08:00pm 2.8 -1.7 -2.9 66 - WSW 11 15 6 8 986.7 986.9 -
20/07:30pm 3.2 -0.5 -3.1 63 - NNW 7 13 4 7 986.9 - -
20/07:00pm 3.3 -1.6 -3.5 61 - W 13 20 7 11 987.1 - -
20/06:30pm 3.1 -1.1 -3.5 62 - W 9 11 5 6 987.1 - -
20/06:00pm 2.9 -1.2 -3.4 63 - N 9 11 5 6 987.4 - -
20/05:30pm 2.9 -1.6 -3.4 63 - WNW 11 15 6 8 987.4 - -
20/05:00pm 3.4 -1.5 -3.4 61 - ESE 13 26 7 14 987.4 987.6 -
20/04:30pm 3.3 -2.0 -3.7 60 - ESE 15 20 8 11 987.4 - -
20/04:00pm 2.4 -2.5 -3.7 64 - NNW 13 28 7 15 987.5 - -
20/03:30pm 3.0 -2.3 -3.6 62 - N 15 28 8 15 987.5 - -
20/03:00pm 1.5 -3.0 -3.4 70 - SW 11 20 6 11 987.6 - -
20/02:30pm 1.9 -3.0 -3.6 67 - WSW 13 26 7 14 987.5 - -
20/02:00pm 0.9 -3.5 -2.3 79 - S 11 20 6 11 987.6 987.8 -
20/01:30pm 0.2 -4.6 -2.5 82 - S 13 19 7 10 987.8 - -
20/01:00pm 0.6 -5.0 -2.6 79 - SSW 17 24 9 13 987.8 - -
20/12:30pm 0.5 -5.5 -3.1 77 - SSW 19 20 10 11 988.0 - -
20/12:00pm 1.8 -3.6 -4.7 62 - SW 15 24 8 13 988.2 - -
20/11:30am 2.0 -4.4 -4.7 61 - SW 20 30 11 16 988.0 - -
20/11:00am 1.9 -3.2 -5.0 60 - SSE 13 19 7 10 988.1 988.3 -
20/10:30am 1.7 -4.6 -4.0 66 - ENE 20 26 11 14 988.0 - -
20/10:00am 1.5 -6.0 -4.1 66 - NE 26 33 14 18 987.6 - -
20/09:30am 1.5 -5.5 -3.9 67 - NE 24 37 13 20 987.5 - -
20/09:00am 1.2 -2.6 -3.8 69 - NW 7 11 4 6 987.4 - -
20/08:30am 1.3 -2.9 -3.9 68 - NNE 9 15 5 8 987.2 - -
20/08:00am 0.8 -3.4 -3.8 71 - SSE 9 15 5 8 987.0 987.2 -
20/07:30am 0.0 -4.5 -3.5 77 - SW 11 15 6 8 986.9 - -
20/07:00am -0.1 -4.3 -3.5 78 - S 9 11 5 6 986.6 - -
20/06:30am 0.2 -2.6 -3.5 76 - SSE 2 6 1 3 986.4 - -
20/06:00am 0.2 -3.0 -3.9 74 - NW 4 11 2 6 986.1 - -
20/05:30am -0.1 -3.8 -2.5 84 - NW 7 13 4 7 985.8 - -
20/05:00am 0.2 -3.3 -3.0 79 - NNW 6 11 3 6 985.6 985.8 -
20/04:30am 0.4 -4.1 -3.0 78 - N 11 19 6 10 985.3 - -
20/04:00am 0.3 -3.8 -3.2 77 - WNW 9 13 5 7 985.1 - -
20/03:30am 0.5 -3.1 -3.4 75 - WSW 6 7 3 4 984.9 - -
20/03:00am 0.4 -3.8 -3.5 75 - N 9 11 5 6 984.6 - -
20/02:30am 0.7 -6.7 -3.8 72 - ENE 26 32 14 17 984.1 - -
20/02:00am 0.8 -7.4 -4.0 70 - NE 30 39 16 21 983.6 983.9 -
20/01:30am 0.7 -9.9 -3.4 74 - NE 43 52 23 28 982.9 - -
20/01:00am 1.0 -12.1 -3.8 70 - ENE 56 65 30 35 981.5 - -
20/12:30am 1.2 -11.5 -3.8 69 - ENE 54 65 29 35 981.1 - -
20/12:00am 1.5 -8.5 -4.6 64 - ENE 39 59 21 32 981.3 - -
 
Date/Time
EDT
Temp
°C
App
Temp
°C
Dew
Point
Rel
Hum
%
Delta-T
°C
Wind Press
QNH
hPa
Press
MSL
hPa
Rain
since 9 am
mm
Dir
 
Spd
km/h
Gust
km/h
Spd
kts
Gust
kts
19/11:39pm 1.6 -6.2 -4.0 66 - NE 28 46 15 25 981.5 - -
19/11:30pm 1.6 -5.0 -3.7 68 - NE 22 35 12 19 981.5 - -
19/11:00pm 1.6 -4.0 -2.9 72 - N 17 30 9 16 981.1 981.4 -
19/10:30pm 2.3 -2.6 -3.8 64 - NE 13 20 7 11 980.7 - -
19/10:00pm 3.1 -0.9 -5.3 54 - W 7 17 4 9 980.4 - -
19/09:30pm 2.9 -0.9 -4.1 60 - WSW 7 15 4 8 980.1 - -
19/09:00pm 3.2 -0.6 -4.0 59 - N 7 13 4 7 980.1 - -
19/08:30pm 3.0 -2.7 -3.8 61 - ESE 17 19 9 10 979.8 - -
19/08:00pm 3.7 -2.4 -4.0 57 - E 19 20 10 11 979.8 980.1 -
19/07:30pm 3.3 0.4 -4.2 58 - N 2 7 1 4 979.9 - -
19/07:00pm 3.4 0.6 -3.6 60 - E 2 6 1 3 979.6 - -
19/06:30pm 3.0 -3.7 -4.2 59 - ESE 22 32 12 17 979.5 - -
19/06:00pm 3.5 -2.8 -5.9 50 - ESE 19 24 10 13 979.6 - -
19/05:30pm 3.8 -2.8 -7.0 45 - N 20 26 11 14 979.5 - -
19/05:00pm 4.3 -2.6 -5.7 48 - E 22 30 12 16 979.4 979.7 -
19/04:30pm 4.2 -4.2 -5.8 48 - E 30 41 16 22 978.8 - -
19/04:00pm 3.7 -5.4 -6.8 46 - ENE 33 57 18 31 978.7 - -
19/03:51pm 3.9 -6.2 -5.8 49 - ENE 39 57 21 31 978.8 - -
19/03:30pm 3.7 -3.5 -5.7 50 - E 24 37 13 20 978.6 - -
19/03:00pm 3.5 -5.2 -5.4 52 - E 32 48 17 26 978.1 - -
19/02:57pm 3.0 -5.4 -6.1 51 - E 30 48 16 26 978.1 - -
19/02:30pm 2.7 -6.7 -6.2 52 - ESE 35 48 19 26 978.0 - -
19/02:16pm 2.8 -5.2 -6.1 52 - ESE 28 37 15 20 978.2 - -
19/02:00pm 3.2 -1.2 -6.2 50 - NE 9 19 5 10 978.6 978.9 -
19/01:30pm 2.6 -3.9 -6.2 52 - S 20 30 11 16 978.7 - -
19/01:00pm 2.9 -2.4 -7.3 47 - S 13 24 7 13 978.6 - -
19/12:44pm 2.9 -6.1 -7.8 45 - SW 32 52 17 28 977.9 - -
19/12:30pm 2.8 -2.0 -6.3 51 - ESE 11 19 6 10 978.4 - -
19/12:00pm 3.0 -5.1 -7.2 47 - SW 28 57 15 31 978.4 - -
19/11:59am 3.0 -5.2 -7.7 45 - SW 28 57 15 31 978.2 - -
19/11:30am 1.9 -7.0 -5.5 58 - SSW 33 43 18 23 978.4 - -
19/11:16am 1.7 -6.7 -5.7 58 - S 30 43 16 23 978.3 - -
19/11:00am 1.8 -4.7 -5.6 58 - SSW 20 24 11 13 978.4 978.7 -
19/10:30am 1.8 -3.8 -6.7 53 - SSW 15 20 8 11 978.3 - -
19/10:00am 1.4 -2.7 -6.2 57 - SSE 7 15 4 8 978.2 - -
19/09:30am 1.5 -4.2 -7.0 53 - S 15 20 8 11 978.2 - -
19/09:00am 2.5 -2.1 -7.4 48 - N 9 19 5 10 978.3 - -
19/08:30am 2.9 -3.6 -7.8 45 - WSW 19 26 10 14 978.3 - -
19/08:11am 2.6 -4.5 -8.7 43 - W 22 32 12 17 978.5 - -
19/08:07am 2.5 -8.7 -7.4 48 - SW 44 54 24 29 978.0 - -
19/08:00am 2.8 -6.2 -8.5 43 - S 32 61 17 33 978.6 978.9 -
19/07:51am 3.0 -6.9 -8.3 43 - S 37 65 20 35 978.2 - -
19/07:31am 2.9 -5.3 -8.4 43 - ESE 28 48 15 26 979.0 - -
19/07:30am 2.9 -4.2 -8.1 44 - SSE 22 37 12 20 979.2 - -
19/07:26am 3.0 -4.1 -8.6 42 - NE 22 32 12 17 979.3 - -
19/07:21am 3.0 -8.1 -8.0 44 - ESE 43 70 23 38 978.7 - -
19/07:09am 2.9 -6.7 -8.1 44 - E 35 54 19 29 979.0 - -
19/07:07am 3.0 -6.0 -8.3 43 - ESE 32 41 17 22 979.1 - -
19/07:00am 2.6 -1.5 -7.0 49 - E 7 11 4 6 979.3 - -
19/06:41am 2.9 -5.7 -7.8 45 - ENE 30 48 16 26 979.1 - -
19/06:38am 2.6 -6.3 -7.6 47 - E 32 39 17 21 979.3 - -
19/06:30am 2.2 -3.1 -7.4 49 - SSE 13 20 7 11 979.3 - -
19/06:00am 2.5 -2.4 -6.8 50 - SW 11 17 6 9 979.4 - -
19/05:30am 2.5 -6.0 -7.4 48 - E 30 65 16 35 979.1 - -
19/05:21am 2.1 -6.0 -7.0 51 - ENE 28 50 15 27 979.2 - -
19/05:00am 1.8 -4.8 -6.7 53 - WSW 20 32 11 17 979.2 979.5 -
19/04:30am 0.8 -6.4 -5.6 62 - S 24 30 13 16 979.0 - -
19/04:12am 1.3 -6.7 -5.4 61 - SW 28 37 15 20 978.7 - -
19/04:00am 0.5 -4.6 -5.1 66 - SW 13 19 7 10 979.2 - -
19/03:30am 0.2 -4.5 -5.0 68 - SW 11 17 6 9 979.3 - -
19/03:00am 0.4 -4.3 -4.8 68 - S 11 15 6 8 979.3 - -
19/02:30am 1.0 -3.0 -5.2 63 - W 7 13 4 7 979.4 - -
19/02:09am 0.9 -6.2 -4.7 66 - ENE 24 32 13 17 979.5 - -
19/02:00am 0.8 -9.2 -4.8 66 - E 39 52 21 28 978.8 979.1 -
19/01:50am 0.9 -9.9 -5.1 64 - E 43 61 23 33 978.5 - -
19/01:36am 1.1 -8.9 -4.7 65 - E 39 48 21 26 978.8 - -
19/01:30am 0.5 -6.7 -4.9 67 - SE 24 35 13 19 979.1 - -
19/01:00am 0.8 -5.6 -5.0 65 - E 20 39 11 21 979.1 - -

Other Formats:

Comma delimited format used in spreadsheet applications
http://www.bom.gov.au/fwo/IDT60803/IDT60803.89611.axf

JavaScript Object Notation format (JSON) in row-major order
http://www.bom.gov.au/fwo/IDT60803/IDT60803.89611.json